sensor_id;sensor_type;location;lat;lon;timestamp;P1;durP1;ratioP1;P2;durP2;ratioP2
70148;SDS011;57514;52.164;5.282;2023-04-10T00:00:33;19.85;;;9.00;;
70148;SDS011;57514;52.164;5.282;2023-04-10T00:03:03;18.30;;;8.55;;
70148;SDS011;57514;52.164;5.282;2023-04-10T00:05:31;19.02;;;10.18;;
70148;SDS011;57514;52.164;5.282;2023-04-10T00:07:58;17.08;;;8.65;;
70148;SDS011;57514;52.164;5.282;2023-04-10T00:10:26;17.48;;;8.73;;
70148;SDS011;57514;52.164;5.282;2023-04-10T00:12:56;17.15;;;8.75;;
70148;SDS011;57514;52.164;5.282;2023-04-10T00:15:23;17.52;;;9.13;;
70148;SDS011;57514;52.164;5.282;2023-04-10T00:17:50;16.90;;;8.48;;
70148;SDS011;57514;52.164;5.282;2023-04-10T00:20:21;17.38;;;9.05;;
70148;SDS011;57514;52.164;5.282;2023-04-10T00:22:48;17.60;;;8.63;;
70148;SDS011;57514;52.164;5.282;2023-04-10T00:25:16;16.10;;;8.00;;
70148;SDS011;57514;52.164;5.282;2023-04-10T00:27:43;17.92;;;8.65;;
70148;SDS011;57514;52.164;5.282;2023-04-10T00:30:11;16.33;;;8.52;;
70148;SDS011;57514;52.164;5.282;2023-04-10T00:32:38;15.77;;;8.23;;
70148;SDS011;57514;52.164;5.282;2023-04-10T00:35:06;18.27;;;9.30;;
70148;SDS011;57514;52.164;5.282;2023-04-10T00:37:34;16.98;;;8.85;;
70148;SDS011;57514;52.164;5.282;2023-04-10T00:40:02;19.02;;;8.73;;
70148;SDS011;57514;52.164;5.282;2023-04-10T00:42:31;17.70;;;8.23;;
70148;SDS011;57514;52.164;5.282;2023-04-10T00:44:59;15.75;;;8.18;;
70148;SDS011;57514;52.164;5.282;2023-04-10T00:47:27;16.70;;;8.73;;
70148;SDS011;57514;52.164;5.282;2023-04-10T00:49:55;18.25;;;8.95;;
70148;SDS011;57514;52.164;5.282;2023-04-10T00:52:22;15.80;;;8.15;;
70148;SDS011;57514;52.164;5.282;2023-04-10T00:54:50;16.42;;;8.02;;
70148;SDS011;57514;52.164;5.282;2023-04-10T00:57:18;16.30;;;7.88;;
70148;SDS011;57514;52.164;5.282;2023-04-10T00:59:45;15.02;;;8.70;;
70148;SDS011;57514;52.164;5.282;2023-04-10T01:02:13;17.90;;;8.55;;
70148;SDS011;57514;52.164;5.282;2023-04-10T01:04:40;17.95;;;8.57;;
70148;SDS011;57514;52.164;5.282;2023-04-10T01:07:14;13.43;;;6.90;;
70148;SDS011;57514;52.164;5.282;2023-04-10T01:09:48;14.82;;;7.68;;
70148;SDS011;57514;52.164;5.282;2023-04-10T01:12:24;15.48;;;8.15;;
70148;SDS011;57514;52.164;5.282;2023-04-10T01:15:01;16.15;;;7.80;;
70148;SDS011;57514;52.164;5.282;2023-04-10T01:17:34;16.23;;;7.10;;
70148;SDS011;57514;52.164;5.282;2023-04-10T01:20:11;15.48;;;7.97;;
70148;SDS011;57514;52.164;5.282;2023-04-10T01:30:46;16.25;;;7.45;;
70148;SDS011;57514;52.164;5.282;2023-04-10T01:33:17;13.88;;;6.78;;
70148;SDS011;57514;52.164;5.282;2023-04-10T01:35:46;17.25;;;7.68;;
70148;SDS011;57514;52.164;5.282;2023-04-10T01:38:15;15.30;;;6.70;;
70148;SDS011;57514;52.164;5.282;2023-04-10T01:40:43;15.68;;;7.80;;
70148;SDS011;57514;52.164;5.282;2023-04-10T01:43:22;13.10;;;6.40;;
70148;SDS011;57514;52.164;5.282;2023-04-10T01:48:20;15.05;;;6.55;;
70148;SDS011;57514;52.164;5.282;2023-04-10T01:50:47;15.35;;;7.50;;
70148;SDS011;57514;52.164;5.282;2023-04-10T01:53:15;13.00;;;6.50;;
70148;SDS011;57514;52.164;5.282;2023-04-10T01:55:43;10.40;;;4.82;;
70148;SDS011;57514;52.164;5.282;2023-04-10T01:58:11;12.23;;;6.20;;
70148;SDS011;57514;52.164;5.282;2023-04-10T02:00:40;13.18;;;5.57;;
70148;SDS011;57514;52.164;5.282;2023-04-10T02:03:09;13.43;;;6.30;;
70148;SDS011;57514;52.164;5.282;2023-04-10T02:06:00;16.67;;;7.10;;
70148;SDS011;57514;52.164;5.282;2023-04-10T02:11:12;14.57;;;7.03;;
70148;SDS011;57514;52.164;5.282;2023-04-10T02:13:41;12.73;;;6.40;;
70148;SDS011;57514;52.164;5.282;2023-04-10T02:16:09;15.15;;;7.50;;
70148;SDS011;57514;52.164;5.282;2023-04-10T02:18:38;13.65;;;7.07;;
70148;SDS011;57514;52.164;5.282;2023-04-10T02:21:07;12.82;;;6.18;;
70148;SDS011;57514;52.164;5.282;2023-04-10T02:23:34;12.15;;;5.40;;
70148;SDS011;57514;52.164;5.282;2023-04-10T02:26:06;13.73;;;6.07;;
70148;SDS011;57514;52.164;5.282;2023-04-10T02:28:33;13.25;;;6.43;;
70148;SDS011;57514;52.164;5.282;2023-04-10T02:31:01;14.52;;;6.65;;
70148;SDS011;57514;52.164;5.282;2023-04-10T02:33:28;12.05;;;5.65;;
70148;SDS011;57514;52.164;5.282;2023-04-10T02:35:55;12.45;;;6.85;;
70148;SDS011;57514;52.164;5.282;2023-04-10T02:38:22;14.35;;;5.97;;
70148;SDS011;57514;52.164;5.282;2023-04-10T02:40:50;12.95;;;4.75;;
70148;SDS011;57514;52.164;5.282;2023-04-10T02:43:17;15.82;;;6.75;;
70148;SDS011;57514;52.164;5.282;2023-04-10T02:45:46;12.55;;;6.20;;
70148;SDS011;57514;52.164;5.282;2023-04-10T02:48:19;11.20;;;5.38;;
70148;SDS011;57514;52.164;5.282;2023-04-10T02:50:55;13.40;;;5.78;;
70148;SDS011;57514;52.164;5.282;2023-04-10T02:53:24;13.43;;;5.95;;
70148;SDS011;57514;52.164;5.282;2023-04-10T02:55:55;10.20;;;4.60;;
70148;SDS011;57514;52.164;5.282;2023-04-10T02:58:22;14.07;;;6.78;;
70148;SDS011;57514;52.164;5.282;2023-04-10T03:03:52;13.65;;;5.95;;
70148;SDS011;57514;52.164;5.282;2023-04-10T03:06:25;11.18;;;4.95;;
70148;SDS011;57514;52.164;5.282;2023-04-10T03:08:54;11.32;;;5.10;;
70148;SDS011;57514;52.164;5.282;2023-04-10T03:11:22;12.98;;;5.40;;
70148;SDS011;57514;52.164;5.282;2023-04-10T03:13:49;13.23;;;6.40;;
70148;SDS011;57514;52.164;5.282;2023-04-10T03:16:16;11.73;;;5.95;;
70148;SDS011;57514;52.164;5.282;2023-04-10T03:18:45;14.05;;;6.50;;
70148;SDS011;57514;52.164;5.282;2023-04-10T03:21:12;13.70;;;6.43;;
70148;SDS011;57514;52.164;5.282;2023-04-10T03:23:40;14.73;;;6.45;;
70148;SDS011;57514;52.164;5.282;2023-04-10T03:26:09;14.00;;;6.80;;
70148;SDS011;57514;52.164;5.282;2023-04-10T03:28:37;12.85;;;5.90;;
70148;SDS011;57514;52.164;5.282;2023-04-10T03:31:05;12.98;;;5.80;;
70148;SDS011;57514;52.164;5.282;2023-04-10T03:33:34;11.10;;;5.38;;
70148;SDS011;57514;52.164;5.282;2023-04-10T03:36:02;13.27;;;5.85;;
70148;SDS011;57514;52.164;5.282;2023-04-10T03:38:31;13.52;;;7.50;;
70148;SDS011;57514;52.164;5.282;2023-04-10T03:40:58;15.27;;;6.65;;
70148;SDS011;57514;52.164;5.282;2023-04-10T03:43:29;14.75;;;6.47;;
70148;SDS011;57514;52.164;5.282;2023-04-10T03:45:57;13.52;;;7.30;;
70148;SDS011;57514;52.164;5.282;2023-04-10T03:48:24;15.18;;;6.55;;
70148;SDS011;57514;52.164;5.282;2023-04-10T03:50:53;13.15;;;6.60;;
70148;SDS011;57514;52.164;5.282;2023-04-10T03:53:21;13.85;;;6.57;;
70148;SDS011;57514;52.164;5.282;2023-04-10T03:55:51;13.45;;;6.63;;
70148;SDS011;57514;52.164;5.282;2023-04-10T03:58:20;12.82;;;6.18;;
70148;SDS011;57514;52.164;5.282;2023-04-10T04:00:47;15.68;;;7.10;;
70148;SDS011;57514;52.164;5.282;2023-04-10T04:03:29;14.57;;;6.90;;
70148;SDS011;57514;52.164;5.282;2023-04-10T04:05:57;13.73;;;6.15;;
70148;SDS011;57514;52.164;5.282;2023-04-10T04:08:30;14.27;;;6.43;;
70148;SDS011;57514;52.164;5.282;2023-04-10T04:11:16;15.07;;;6.55;;
70148;SDS011;57514;52.164;5.282;2023-04-10T04:13:56;13.13;;;6.65;;
70148;SDS011;57514;52.164;5.282;2023-04-10T04:16:56;15.15;;;6.72;;
70148;SDS011;57514;52.164;5.282;2023-04-10T04:19:31;14.02;;;6.55;;
70148;SDS011;57514;52.164;5.282;2023-04-10T04:22:13;15.00;;;6.80;;
70148;SDS011;57514;52.164;5.282;2023-04-10T04:25:00;14.30;;;6.25;;
70148;SDS011;57514;52.164;5.282;2023-04-10T04:27:49;12.05;;;5.68;;
70148;SDS011;57514;52.164;5.282;2023-04-10T04:30:30;13.32;;;6.43;;
70148;SDS011;57514;52.164;5.282;2023-04-10T04:33:27;13.77;;;6.35;;
70148;SDS011;57514;52.164;5.282;2023-04-10T04:36:01;13.48;;;6.30;;
70148;SDS011;57514;52.164;5.282;2023-04-10T04:38:54;14.10;;;6.57;;
70148;SDS011;57514;52.164;5.282;2023-04-10T04:41:48;13.93;;;7.00;;
70148;SDS011;57514;52.164;5.282;2023-04-10T04:44:34;13.40;;;6.50;;
70148;SDS011;57514;52.164;5.282;2023-04-10T04:47:34;13.60;;;6.03;;
70148;SDS011;57514;52.164;5.282;2023-04-10T04:50:09;14.23;;;6.70;;
70148;SDS011;57514;52.164;5.282;2023-04-10T04:52:57;14.07;;;7.35;;
70148;SDS011;57514;52.164;5.282;2023-04-10T04:55:37;16.48;;;6.40;;
70148;SDS011;57514;52.164;5.282;2023-04-10T04:58:16;14.10;;;6.40;;
70148;SDS011;57514;52.164;5.282;2023-04-10T05:01:10;14.57;;;6.72;;
70148;SDS011;57514;52.164;5.282;2023-04-10T05:03:51;11.55;;;4.97;;
70148;SDS011;57514;52.164;5.282;2023-04-10T05:06:41;15.80;;;6.82;;
70148;SDS011;57514;52.164;5.282;2023-04-10T05:09:34;15.55;;;6.38;;
70148;SDS011;57514;52.164;5.282;2023-04-10T05:12:14;14.60;;;7.18;;
70148;SDS011;57514;52.164;5.282;2023-04-10T05:14:49;13.90;;;6.70;;
70148;SDS011;57514;52.164;5.282;2023-04-10T05:17:31;13.25;;;6.95;;
70148;SDS011;57514;52.164;5.282;2023-04-10T05:20:26;14.00;;;6.65;;
70148;SDS011;57514;52.164;5.282;2023-04-10T05:23:17;12.90;;;6.43;;
70148;SDS011;57514;52.164;5.282;2023-04-10T05:25:54;14.52;;;6.97;;
70148;SDS011;57514;52.164;5.282;2023-04-10T05:28:41;16.38;;;7.15;;
70148;SDS011;57514;52.164;5.282;2023-04-10T05:31:24;15.32;;;6.13;;
70148;SDS011;57514;52.164;5.282;2023-04-10T05:33:57;14.27;;;6.35;;
70148;SDS011;57514;52.164;5.282;2023-04-10T05:36:38;16.17;;;7.78;;
70148;SDS011;57514;52.164;5.282;2023-04-10T05:39:15;15.55;;;6.90;;
70148;SDS011;57514;52.164;5.282;2023-04-10T05:42:01;14.25;;;6.68;;
70148;SDS011;57514;52.164;5.282;2023-04-10T05:44:47;13.68;;;6.45;;
70148;SDS011;57514;52.164;5.282;2023-04-10T05:47:37;10.82;;;4.28;;
70148;SDS011;57514;52.164;5.282;2023-04-10T05:50:16;18.10;;;7.05;;
70148;SDS011;57514;52.164;5.282;2023-04-10T05:52:50;14.35;;;6.70;;
70148;SDS011;57514;52.164;5.282;2023-04-10T05:55:38;14.80;;;6.30;;
70148;SDS011;57514;52.164;5.282;2023-04-10T05:58:20;14.38;;;7.35;;
70148;SDS011;57514;52.164;5.282;2023-04-10T06:01:09;12.10;;;5.47;;
70148;SDS011;57514;52.164;5.282;2023-04-10T06:03:47;13.63;;;6.10;;
70148;SDS011;57514;52.164;5.282;2023-04-10T06:06:15;13.80;;;6.88;;
70148;SDS011;57514;52.164;5.282;2023-04-10T06:08:43;13.90;;;6.35;;
70148;SDS011;57514;52.164;5.282;2023-04-10T06:11:10;13.52;;;6.32;;
70148;SDS011;57514;52.164;5.282;2023-04-10T06:16:08;13.98;;;6.90;;
70148;SDS011;57514;52.164;5.282;2023-04-10T06:18:36;13.55;;;6.25;;
70148;SDS011;57514;52.164;5.282;2023-04-10T06:21:04;13.18;;;5.85;;
70148;SDS011;57514;52.164;5.282;2023-04-10T06:23:31;13.88;;;6.63;;
70148;SDS011;57514;52.164;5.282;2023-04-10T06:25:59;12.77;;;6.20;;
70148;SDS011;57514;52.164;5.282;2023-04-10T06:28:26;12.52;;;6.15;;
70148;SDS011;57514;52.164;5.282;2023-04-10T06:30:58;13.43;;;6.10;;
70148;SDS011;57514;52.164;5.282;2023-04-10T06:33:32;12.02;;;5.43;;
70148;SDS011;57514;52.164;5.282;2023-04-10T06:36:05;12.23;;;6.05;;
70148;SDS011;57514;52.164;5.282;2023-04-10T06:38:39;12.32;;;5.50;;
70148;SDS011;57514;52.164;5.282;2023-04-10T06:41:06;13.75;;;6.85;;
70148;SDS011;57514;52.164;5.282;2023-04-10T06:43:34;11.98;;;5.50;;
70148;SDS011;57514;52.164;5.282;2023-04-10T06:46:02;6.18;;;3.45;;
70148;SDS011;57514;52.164;5.282;2023-04-10T06:48:30;12.60;;;5.78;;
70148;SDS011;57514;52.164;5.282;2023-04-10T06:50:57;11.45;;;6.22;;
70148;SDS011;57514;52.164;5.282;2023-04-10T06:53:28;13.48;;;6.22;;
70148;SDS011;57514;52.164;5.282;2023-04-10T06:55:56;14.35;;;6.40;;
70148;SDS011;57514;52.164;5.282;2023-04-10T06:58:24;12.00;;;6.63;;
70148;SDS011;57514;52.164;5.282;2023-04-10T07:00:51;13.68;;;5.30;;
70148;SDS011;57514;52.164;5.282;2023-04-10T07:03:19;14.15;;;7.38;;
70148;SDS011;57514;52.164;5.282;2023-04-10T07:05:47;11.90;;;6.22;;
70148;SDS011;57514;52.164;5.282;2023-04-10T07:08:14;14.07;;;7.38;;
70148;SDS011;57514;52.164;5.282;2023-04-10T07:10:41;11.52;;;5.07;;
70148;SDS011;57514;52.164;5.282;2023-04-10T07:13:08;12.32;;;6.50;;
70148;SDS011;57514;52.164;5.282;2023-04-10T07:15:36;12.35;;;6.07;;
70148;SDS011;57514;52.164;5.282;2023-04-10T07:18:04;13.57;;;6.65;;
70148;SDS011;57514;52.164;5.282;2023-04-10T07:20:31;12.73;;;6.90;;
70148;SDS011;57514;52.164;5.282;2023-04-10T07:22:58;11.88;;;5.40;;
70148;SDS011;57514;52.164;5.282;2023-04-10T07:25:26;11.93;;;6.10;;
70148;SDS011;57514;52.164;5.282;2023-04-10T07:27:53;12.55;;;5.68;;
70148;SDS011;57514;52.164;5.282;2023-04-10T07:30:20;12.88;;;6.72;;
70148;SDS011;57514;52.164;5.282;2023-04-10T07:32:48;14.55;;;7.05;;
70148;SDS011;57514;52.164;5.282;2023-04-10T07:35:15;14.05;;;6.40;;
70148;SDS011;57514;52.164;5.282;2023-04-10T07:37:42;12.60;;;6.18;;
70148;SDS011;57514;52.164;5.282;2023-04-10T07:40:10;11.00;;;5.55;;
70148;SDS011;57514;52.164;5.282;2023-04-10T07:42:37;11.65;;;5.57;;
70148;SDS011;57514;52.164;5.282;2023-04-10T07:45:05;12.57;;;5.88;;
70148;SDS011;57514;52.164;5.282;2023-04-10T07:47:32;11.95;;;6.07;;
70148;SDS011;57514;52.164;5.282;2023-04-10T07:49:59;11.82;;;6.13;;
70148;SDS011;57514;52.164;5.282;2023-04-10T07:52:27;12.95;;;6.95;;
70148;SDS011;57514;52.164;5.282;2023-04-10T07:54:54;12.40;;;6.10;;
70148;SDS011;57514;52.164;5.282;2023-04-10T07:57:22;11.80;;;5.68;;
70148;SDS011;57514;52.164;5.282;2023-04-10T07:59:50;12.60;;;7.00;;
70148;SDS011;57514;52.164;5.282;2023-04-10T08:02:17;12.20;;;5.82;;
70148;SDS011;57514;52.164;5.282;2023-04-10T08:04:44;13.82;;;6.25;;
70148;SDS011;57514;52.164;5.282;2023-04-10T08:07:12;12.07;;;6.30;;
70148;SDS011;57514;52.164;5.282;2023-04-10T08:09:39;12.57;;;6.30;;
70148;SDS011;57514;52.164;5.282;2023-04-10T08:12:06;13.27;;;6.80;;
70148;SDS011;57514;52.164;5.282;2023-04-10T08:14:34;12.48;;;6.35;;
70148;SDS011;57514;52.164;5.282;2023-04-10T08:17:01;12.10;;;6.03;;
70148;SDS011;57514;52.164;5.282;2023-04-10T08:19:28;14.18;;;6.25;;
70148;SDS011;57514;52.164;5.282;2023-04-10T08:21:55;13.65;;;7.32;;
70148;SDS011;57514;52.164;5.282;2023-04-10T08:24:23;12.60;;;5.90;;
70148;SDS011;57514;52.164;5.282;2023-04-10T08:26:50;12.32;;;6.93;;
70148;SDS011;57514;52.164;5.282;2023-04-10T08:29:18;12.63;;;6.18;;
70148;SDS011;57514;52.164;5.282;2023-04-10T08:31:45;12.60;;;6.72;;
70148;SDS011;57514;52.164;5.282;2023-04-10T08:34:14;11.88;;;6.18;;
70148;SDS011;57514;52.164;5.282;2023-04-10T08:36:42;12.30;;;6.80;;
70148;SDS011;57514;52.164;5.282;2023-04-10T08:39:09;12.40;;;6.15;;
70148;SDS011;57514;52.164;5.282;2023-04-10T08:41:36;13.07;;;6.63;;
70148;SDS011;57514;52.164;5.282;2023-04-10T08:44:07;12.52;;;6.40;;
70148;SDS011;57514;52.164;5.282;2023-04-10T08:46:35;14.45;;;7.20;;
70148;SDS011;57514;52.164;5.282;2023-04-10T08:49:03;12.85;;;6.60;;
70148;SDS011;57514;52.164;5.282;2023-04-10T08:51:31;14.57;;;5.97;;
70148;SDS011;57514;52.164;5.282;2023-04-10T08:54:12;14.15;;;6.57;;
70148;SDS011;57514;52.164;5.282;2023-04-10T08:56:44;13.15;;;6.43;;
70148;SDS011;57514;52.164;5.282;2023-04-10T08:59:13;13.30;;;6.43;;
70148;SDS011;57514;52.164;5.282;2023-04-10T09:01:40;12.65;;;6.25;;
70148;SDS011;57514;52.164;5.282;2023-04-10T09:04:10;10.52;;;4.93;;
70148;SDS011;57514;52.164;5.282;2023-04-10T09:06:38;12.63;;;5.88;;
70148;SDS011;57514;52.164;5.282;2023-04-10T09:09:06;12.98;;;6.32;;
70148;SDS011;57514;52.164;5.282;2023-04-10T09:14:21;14.55;;;7.20;;
70148;SDS011;57514;52.164;5.282;2023-04-10T09:16:49;14.20;;;6.40;;
70148;SDS011;57514;52.164;5.282;2023-04-10T09:19:30;10.25;;;5.40;;
70148;SDS011;57514;52.164;5.282;2023-04-10T09:21:58;11.70;;;5.15;;
70148;SDS011;57514;52.164;5.282;2023-04-10T09:24:26;14.27;;;7.00;;
70148;SDS011;57514;52.164;5.282;2023-04-10T09:26:53;13.10;;;7.10;;
70148;SDS011;57514;52.164;5.282;2023-04-10T09:29:21;13.95;;;6.90;;
70148;SDS011;57514;52.164;5.282;2023-04-10T09:31:48;13.43;;;7.18;;
70148;SDS011;57514;52.164;5.282;2023-04-10T09:34:17;12.93;;;6.35;;
70148;SDS011;57514;52.164;5.282;2023-04-10T09:36:54;14.50;;;6.03;;
70148;SDS011;57514;52.164;5.282;2023-04-10T09:39:31;13.57;;;6.75;;
70148;SDS011;57514;52.164;5.282;2023-04-10T09:41:59;12.52;;;6.68;;
70148;SDS011;57514;52.164;5.282;2023-04-10T09:44:30;13.13;;;6.50;;
70148;SDS011;57514;52.164;5.282;2023-04-10T09:46:58;14.38;;;7.07;;
70148;SDS011;57514;52.164;5.282;2023-04-10T09:54:49;11.45;;;5.80;;
70148;SDS011;57514;52.164;5.282;2023-04-10T09:57:18;14.35;;;6.95;;
70148;SDS011;57514;52.164;5.282;2023-04-10T09:59:47;11.63;;;5.90;;
70148;SDS011;57514;52.164;5.282;2023-04-10T10:02:19;12.52;;;5.47;;
70148;SDS011;57514;52.164;5.282;2023-04-10T10:04:47;10.35;;;5.18;;
70148;SDS011;57514;52.164;5.282;2023-04-10T10:07:16;12.30;;;5.72;;
70148;SDS011;57514;52.164;5.282;2023-04-10T10:09:48;12.30;;;5.45;;
70148;SDS011;57514;52.164;5.282;2023-04-10T10:12:25;13.00;;;7.15;;
70148;SDS011;57514;52.164;5.282;2023-04-10T10:15:22;11.32;;;5.25;;
70148;SDS011;57514;52.164;5.282;2023-04-10T10:20:34;12.07;;;5.80;;
70148;SDS011;57514;52.164;5.282;2023-04-10T10:23:05;13.55;;;6.20;;
70148;SDS011;57514;52.164;5.282;2023-04-10T10:25:33;12.40;;;5.85;;
70148;SDS011;57514;52.164;5.282;2023-04-10T10:28:03;11.20;;;5.50;;
70148;SDS011;57514;52.164;5.282;2023-04-10T10:30:32;12.25;;;6.47;;
70148;SDS011;57514;52.164;5.282;2023-04-10T10:33:00;12.55;;;6.15;;
70148;SDS011;57514;52.164;5.282;2023-04-10T10:35:31;11.13;;;5.68;;
70148;SDS011;57514;52.164;5.282;2023-04-10T10:38:01;14.88;;;6.80;;
70148;SDS011;57514;52.164;5.282;2023-04-10T10:43:09;11.57;;;5.35;;
70148;SDS011;57514;52.164;5.282;2023-04-10T10:46:06;13.13;;;6.47;;
70148;SDS011;57514;52.164;5.282;2023-04-10T10:48:38;13.07;;;6.55;;
70148;SDS011;57514;52.164;5.282;2023-04-10T10:51:05;11.98;;;5.57;;
70148;SDS011;57514;52.164;5.282;2023-04-10T10:58:45;11.38;;;5.93;;
70148;SDS011;57514;52.164;5.282;2023-04-10T11:01:24;11.55;;;6.20;;
70148;SDS011;57514;52.164;5.282;2023-04-10T11:03:51;10.90;;;5.85;;
70148;SDS011;57514;52.164;5.282;2023-04-10T11:06:20;11.18;;;5.82;;
70148;SDS011;57514;52.164;5.282;2023-04-10T11:09:25;12.57;;;6.97;;
70148;SDS011;57514;52.164;5.282;2023-04-10T11:12:13;10.40;;;5.88;;
70148;SDS011;57514;52.164;5.282;2023-04-10T11:14:42;11.75;;;5.82;;
70148;SDS011;57514;52.164;5.282;2023-04-10T11:17:11;10.65;;;5.38;;
70148;SDS011;57514;52.164;5.282;2023-04-10T11:22:26;11.02;;;5.78;;
70148;SDS011;57514;52.164;5.282;2023-04-10T11:24:54;11.35;;;6.40;;
70148;SDS011;57514;52.164;5.282;2023-04-10T11:27:44;12.43;;;6.13;;
70148;SDS011;57514;52.164;5.282;2023-04-10T11:30:33;12.43;;;5.65;;
70148;SDS011;57514;52.164;5.282;2023-04-10T11:33:01;12.07;;;5.90;;
70148;SDS011;57514;52.164;5.282;2023-04-10T11:35:29;13.80;;;6.28;;
70148;SDS011;57514;52.164;5.282;2023-04-10T11:38:07;10.95;;;5.55;;
70148;SDS011;57514;52.164;5.282;2023-04-10T11:40:54;13.95;;;6.47;;
70148;SDS011;57514;52.164;5.282;2023-04-10T11:43:22;11.05;;;5.45;;
70148;SDS011;57514;52.164;5.282;2023-04-10T11:45:49;10.95;;;5.70;;
70148;SDS011;57514;52.164;5.282;2023-04-10T11:48:33;10.90;;;5.30;;
70148;SDS011;57514;52.164;5.282;2023-04-10T11:51:05;12.55;;;4.53;;
70148;SDS011;57514;52.164;5.282;2023-04-10T11:53:34;9.18;;;4.85;;
70148;SDS011;57514;52.164;5.282;2023-04-10T11:56:01;15.75;;;6.05;;
70148;SDS011;57514;52.164;5.282;2023-04-10T11:58:33;8.30;;;4.60;;
70148;SDS011;57514;52.164;5.282;2023-04-10T12:01:01;10.95;;;5.47;;
70148;SDS011;57514;52.164;5.282;2023-04-10T12:06:04;10.48;;;5.15;;
70148;SDS011;57514;52.164;5.282;2023-04-10T12:08:33;9.65;;;4.57;;
70148;SDS011;57514;52.164;5.282;2023-04-10T12:11:02;10.75;;;5.35;;
70148;SDS011;57514;52.164;5.282;2023-04-10T12:13:30;8.25;;;3.72;;
70148;SDS011;57514;52.164;5.282;2023-04-10T12:15:58;11.18;;;5.20;;
70148;SDS011;57514;52.164;5.282;2023-04-10T12:18:27;10.90;;;4.88;;
70148;SDS011;57514;52.164;5.282;2023-04-10T12:20:56;9.50;;;4.63;;
70148;SDS011;57514;52.164;5.282;2023-04-10T12:23:25;10.27;;;4.80;;
70148;SDS011;57514;52.164;5.282;2023-04-10T12:26:05;9.43;;;5.13;;
70148;SDS011;57514;52.164;5.282;2023-04-10T12:28:34;9.32;;;4.70;;
70148;SDS011;57514;52.164;5.282;2023-04-10T12:31:03;9.63;;;3.78;;
70148;SDS011;57514;52.164;5.282;2023-04-10T12:33:30;10.05;;;4.50;;
70148;SDS011;57514;52.164;5.282;2023-04-10T12:35:58;9.20;;;4.35;;
70148;SDS011;57514;52.164;5.282;2023-04-10T12:38:38;10.18;;;4.50;;
70148;SDS011;57514;52.164;5.282;2023-04-10T12:41:07;9.27;;;3.65;;
70148;SDS011;57514;52.164;5.282;2023-04-10T12:46:04;8.75;;;4.22;;
70148;SDS011;57514;52.164;5.282;2023-04-10T12:48:31;9.00;;;4.20;;
70148;SDS011;57514;52.164;5.282;2023-04-10T12:50:59;7.38;;;3.45;;
70148;SDS011;57514;52.164;5.282;2023-04-10T12:53:26;7.97;;;4.00;;
70148;SDS011;57514;52.164;5.282;2023-04-10T12:58:31;8.63;;;3.38;;
70148;SDS011;57514;52.164;5.282;2023-04-10T13:01:06;7.97;;;3.63;;
70148;SDS011;57514;52.164;5.282;2023-04-10T13:03:35;8.73;;;3.47;;
70148;SDS011;57514;52.164;5.282;2023-04-10T13:06:06;9.20;;;3.65;;
70148;SDS011;57514;52.164;5.282;2023-04-10T13:08:35;7.05;;;3.30;;
70148;SDS011;57514;52.164;5.282;2023-04-10T13:11:04;8.82;;;4.00;;
70148;SDS011;57514;52.164;5.282;2023-04-10T13:13:32;8.35;;;3.97;;
70148;SDS011;57514;52.164;5.282;2023-04-10T13:16:03;9.60;;;4.07;;
70148;SDS011;57514;52.164;5.282;2023-04-10T13:18:30;7.60;;;4.10;;
70148;SDS011;57514;52.164;5.282;2023-04-10T13:20:59;8.38;;;3.95;;
70148;SDS011;57514;52.164;5.282;2023-04-10T13:23:26;7.30;;;3.75;;
70148;SDS011;57514;52.164;5.282;2023-04-10T13:25:54;18.23;;;4.10;;
70148;SDS011;57514;52.164;5.282;2023-04-10T13:28:22;8.70;;;3.55;;
70148;SDS011;57514;52.164;5.282;2023-04-10T13:30:49;8.82;;;4.22;;
70148;SDS011;57514;52.164;5.282;2023-04-10T13:33:18;8.85;;;3.80;;
70148;SDS011;57514;52.164;5.282;2023-04-10T13:35:46;7.93;;;3.08;;
70148;SDS011;57514;52.164;5.282;2023-04-10T13:38:13;7.90;;;3.63;;
70148;SDS011;57514;52.164;5.282;2023-04-10T13:40:41;9.07;;;5.00;;
70148;SDS011;57514;52.164;5.282;2023-04-10T13:43:08;7.43;;;3.47;;
70148;SDS011;57514;52.164;5.282;2023-04-10T13:45:35;7.32;;;3.30;;
70148;SDS011;57514;52.164;5.282;2023-04-10T13:48:03;8.32;;;3.63;;
70148;SDS011;57514;52.164;5.282;2023-04-10T13:50:32;7.85;;;3.50;;
70148;SDS011;57514;52.164;5.282;2023-04-10T13:53:00;9.95;;;4.97;;
70148;SDS011;57514;52.164;5.282;2023-04-10T13:55:27;8.18;;;3.80;;
70148;SDS011;57514;52.164;5.282;2023-04-10T13:57:54;8.63;;;3.55;;
70148;SDS011;57514;52.164;5.282;2023-04-10T14:00:21;9.05;;;3.85;;
70148;SDS011;57514;52.164;5.282;2023-04-10T14:02:49;9.80;;;4.60;;
70148;SDS011;57514;52.164;5.282;2023-04-10T14:05:16;8.55;;;4.15;;
70148;SDS011;57514;52.164;5.282;2023-04-10T14:07:44;10.10;;;4.20;;
70148;SDS011;57514;52.164;5.282;2023-04-10T14:10:11;9.75;;;5.03;;
70148;SDS011;57514;52.164;5.282;2023-04-10T14:12:38;11.20;;;5.47;;
70148;SDS011;57514;52.164;5.282;2023-04-10T14:15:06;11.05;;;4.95;;
70148;SDS011;57514;52.164;5.282;2023-04-10T14:17:33;11.30;;;5.60;;
70148;SDS011;57514;52.164;5.282;2023-04-10T14:20:01;11.30;;;5.40;;
70148;SDS011;57514;52.164;5.282;2023-04-10T14:22:28;11.05;;;4.75;;
70148;SDS011;57514;52.164;5.282;2023-04-10T14:24:58;10.50;;;4.97;;
70148;SDS011;57514;52.164;5.282;2023-04-10T14:27:38;10.25;;;4.88;;
70148;SDS011;57514;52.164;5.282;2023-04-10T14:30:05;9.80;;;4.45;;
70148;SDS011;57514;52.164;5.282;2023-04-10T14:32:39;10.18;;;5.13;;
70148;SDS011;57514;52.164;5.282;2023-04-10T14:35:07;9.77;;;4.43;;
70148;SDS011;57514;52.164;5.282;2023-04-10T14:37:34;7.97;;;4.22;;
70148;SDS011;57514;52.164;5.282;2023-04-10T14:40:02;11.07;;;4.95;;
70148;SDS011;57514;52.164;5.282;2023-04-10T14:42:32;9.98;;;5.18;;
70148;SDS011;57514;52.164;5.282;2023-04-10T14:45:00;10.35;;;5.35;;
70148;SDS011;57514;52.164;5.282;2023-04-10T14:47:27;9.40;;;4.50;;
70148;SDS011;57514;52.164;5.282;2023-04-10T14:49:55;8.55;;;4.03;;
70148;SDS011;57514;52.164;5.282;2023-04-10T14:52:22;10.18;;;4.65;;
70148;SDS011;57514;52.164;5.282;2023-04-10T14:54:49;8.82;;;3.63;;
70148;SDS011;57514;52.164;5.282;2023-04-10T14:57:16;8.85;;;4.20;;
70148;SDS011;57514;52.164;5.282;2023-04-10T14:59:43;11.07;;;6.40;;
70148;SDS011;57514;52.164;5.282;2023-04-10T15:02:11;11.63;;;4.88;;
70148;SDS011;57514;52.164;5.282;2023-04-10T15:04:38;10.63;;;5.43;;
70148;SDS011;57514;52.164;5.282;2023-04-10T15:07:05;13.05;;;5.63;;
70148;SDS011;57514;52.164;5.282;2023-04-10T15:09:32;17.15;;;7.25;;
70148;SDS011;57514;52.164;5.282;2023-04-10T15:11:59;13.20;;;6.13;;
70148;SDS011;57514;52.164;5.282;2023-04-10T15:14:27;10.93;;;5.82;;
70148;SDS011;57514;52.164;5.282;2023-04-10T15:16:54;8.20;;;4.22;;
70148;SDS011;57514;52.164;5.282;2023-04-10T15:19:22;12.65;;;6.00;;
70148;SDS011;57514;52.164;5.282;2023-04-10T15:21:49;11.25;;;5.88;;
70148;SDS011;57514;52.164;5.282;2023-04-10T15:24:16;11.05;;;4.95;;
70148;SDS011;57514;52.164;5.282;2023-04-10T15:26:43;10.30;;;4.78;;
70148;SDS011;57514;52.164;5.282;2023-04-10T15:29:11;11.82;;;6.03;;
70148;SDS011;57514;52.164;5.282;2023-04-10T15:31:39;13.43;;;6.30;;
70148;SDS011;57514;52.164;5.282;2023-04-10T15:34:06;10.85;;;6.07;;
70148;SDS011;57514;52.164;5.282;2023-04-10T15:36:34;12.68;;;6.53;;
70148;SDS011;57514;52.164;5.282;2023-04-10T15:39:01;11.98;;;5.43;;
70148;SDS011;57514;52.164;5.282;2023-04-10T15:41:29;12.27;;;5.47;;
70148;SDS011;57514;52.164;5.282;2023-04-10T15:43:57;13.10;;;6.72;;
70148;SDS011;57514;52.164;5.282;2023-04-10T15:46:25;13.63;;;6.10;;